Time;durP1;ratioP1;P1;durP2;ratioP2;P2;SDS_P1;SDS_P2;PMS_P1;PMS_P2;Temp;Humidity;BMP_temperature;BMP_pressure;BME280_temperature;BME280_humidity;BME280_pressure;Samples;Min_cycle;Max_cycle;Signal;HPM_P1;HPM_P2
2022/08/23 00:01:26;;;;;;;0.40;0.40;;;;;;;20.32;66.01;100462.78;5074368;28;20068;-52
2022/08/23 00:03:54;;;;;;;1.17;0.63;;;;;;;20.37;66.00;100464.72;5073921;28;20120;-51
2022/08/23 00:06:22;;;;;;;0.50;0.50;;;;;;;20.40;66.03;100483.28;5073213;28;20205;-49
2022/08/23 00:08:50;;;;;;;0.50;0.40;;;;;;;20.35;65.96;100470.41;5074188;28;20032;-48
2022/08/23 00:11:37;;;;;;;1.35;0.80;;;;;;;20.26;67.83;100470.09;5073942;28;20416;-53
2022/08/23 00:14:08;;;;;;;0.40;0.40;;;;;;;20.22;67.26;100468.13;5073873;28;20070;-50
2022/08/23 00:16:34;;;;;;;2.65;0.57;;;;;;;20.16;67.45;100455.53;5074371;28;20472;-49
2022/08/23 00:19:02;;;;;;;0.70;0.70;;;;;;;20.03;67.81;100451.28;5073584;28;20040;-49
2022/08/23 00:21:28;;;;;;;1.67;0.80;;;;;;;20.02;68.54;100464.13;5072124;28;20481;-51
2022/08/23 00:23:55;;;;;;;1.33;0.70;;;;;;;20.07;67.28;100466.06;5073468;28;20190;-49
2022/08/23 00:26:21;;;;;;;1.00;0.57;;;;;;;20.16;67.52;100482.78;5073854;28;20085;-51
2022/08/23 00:28:48;;;;;;;2.35;0.57;;;;;;;20.16;67.68;100478.16;5055395;28;20040;-48
2022/08/23 00:31:15;;;;;;;0.65;0.43;;;;;;;20.18;67.04;100484.16;5073034;28;20473;-50
2022/08/23 00:33:41;;;;;;;0.40;0.32;;;;;;;20.19;66.81;100477.66;5076675;28;20073;-49
2022/08/23 00:36:07;;;;;;;0.50;0.35;;;;;;;20.20;66.69;100478.47;5059241;28;20112;-49
2022/08/23 00:38:33;;;;;;;0.75;0.32;;;;;;;20.10;67.12;100471.00;5076810;28;20554;-53
2022/08/23 00:40:59;;;;;;;0.30;0.30;;;;;;;20.05;67.66;100479.13;5075425;28;20075;-51
2022/08/23 00:49:28;;;;;;;0.28;0.28;;;;;;;19.97;67.65;100487.78;5045169;28;20032;-49
2022/08/23 00:52:01;;;;;;;0.20;0.20;;;;;;;19.80;67.47;100458.69;5076593;28;20056;-49
2022/08/23 00:54:28;;;;;;;2.30;0.20;;;;;;;20.03;66.25;100475.84;5076632;28;20044;-49
2022/08/23 00:56:59;;;;;;;0.30;0.20;;;;;;;20.03;66.18;100479.38;5058719;28;20021;-51
2022/08/23 00:59:25;;;;;;;0.40;0.30;;;;;;;19.92;66.61;100486.59;5076298;28;20028;-52
2022/08/23 01:01:51;;;;;;;0.30;0.30;;;;;;;19.94;66.41;100478.19;5076324;28;20410;-50
2022/08/23 01:04:18;;;;;;;0.20;0.20;;;;;;;19.91;66.26;100476.00;5076458;28;20427;-53
2022/08/23 01:06:53;;;;;;;0.20;0.20;;;;;;;19.95;65.97;100488.03;5076471;28;20056;-50
2022/08/23 01:09:21;;;;;;;0.10;0.10;;;;;;;19.90;65.80;100471.59;5075587;28;20035;-50
2022/08/23 01:11:59;;;;;;;0.68;0.50;;;;;;;19.94;65.95;100480.91;5058953;28;20036;-51
2022/08/23 01:14:35;;;;;;;0.28;0.20;;;;;;;19.96;65.69;100491.56;5077259;28;20063;-51
2022/08/23 01:17:05;;;;;;;0.20;0.20;;;;;;;19.96;65.38;100483.38;5076418;28;20035;-48
2022/08/23 01:19:37;;;;;;;0.20;0.20;;;;;;;20.02;65.55;100479.63;5076192;28;20103;-51
2022/08/23 01:22:12;;;;;;;0.45;0.30;;;;;;;19.98;65.42;100481.22;5075779;28;20111;-49
2022/08/23 01:24:39;;;;;;;0.40;0.40;;;;;;;19.91;65.67;100481.44;5075797;28;20071;-50
2022/08/23 01:27:05;;;;;;;0.82;0.40;;;;;;;19.93;65.21;100476.56;5074740;28;20032;-51
2022/08/23 01:29:31;;;;;;;0.47;0.47;;;;;;;19.94;65.45;100475.47;5074535;28;20040;-50
2022/08/23 01:31:57;;;;;;;0.47;0.40;;;;;;;19.94;65.09;100474.66;5057699;28;20124;-52
2022/08/23 01:34:25;;;;;;;0.50;0.50;;;;;;;19.76;65.79;100463.00;5077125;28;20032;-49
2022/08/23 01:36:52;;;;;;;1.02;0.55;;;;;;;19.79;65.77;100461.66;5076001;28;20035;-52
2022/08/23 01:39:17;;;;;;;0.52;0.40;;;;;;;19.78;66.31;100470.91;5074468;28;20024;-54
2022/08/23 01:41:43;;;;;;;1.20;0.50;;;;;;;19.71;66.48;100469.19;5076461;28;20534;-52
2022/08/23 01:44:09;;;;;;;2.03;0.60;;;;;;;19.74;66.40;100473.31;5074946;28;20035;-51
2022/08/23 01:46:35;;;;;;;0.75;0.75;;;;;;;19.74;66.60;100470.59;5075421;28;20032;-49
2022/08/23 01:49:03;;;;;;;2.58;0.63;;;;;;;19.57;67.80;100472.53;5057153;28;20465;-50
2022/08/23 01:51:30;;;;;;;0.80;0.50;;;;;;;19.64;66.90;100479.44;5057439;28;20060;-51
2022/08/23 01:53:56;;;;;;;0.95;0.80;;;;;;;19.65;67.01;100480.25;5075285;28;20111;-49
2022/08/23 01:56:23;;;;;;;1.27;0.68;;;;;;;19.61;66.77;100462.78;5074435;28;20102;-49
2022/08/23 01:58:49;;;;;;;0.40;0.40;;;;;;;19.65;66.41;100474.81;5074887;28;20051;-49
2022/08/23 02:01:16;;;;;;;1.95;0.75;;;;;;;19.69;66.45;100481.41;5075192;28;20060;-49
2022/08/23 02:03:42;;;;;;;0.70;0.70;;;;;;;19.67;66.82;100483.56;5057011;28;20412;-50
2022/08/23 02:06:08;;;;;;;0.60;0.60;;;;;;;19.68;66.34;100487.94;5075375;28;20629;-50
2022/08/23 02:11:22;;;;;;;1.73;0.90;;;;;;;19.57;67.17;100495.16;5046448;28;20373;-52
2022/08/23 02:13:52;;;;;;;0.95;0.95;;;;;;;19.57;67.08;100497.88;5074793;28;20024;-49
2022/08/23 02:16:30;;;;;;;0.70;0.70;;;;;;;19.47;67.10;100481.41;5073702;28;20483;-49
2022/08/23 02:18:56;;;;;;;0.77;0.77;;;;;;;19.56;67.54;100506.28;5074877;28;20480;-49
2022/08/23 02:21:23;;;;;;;1.00;1.00;;;;;;;19.51;67.74;100496.16;5074795;28;20107;-49
2022/08/23 02:23:50;;;;;;;1.23;1.10;;;;;;;19.49;68.34;100496.41;5056995;28;20033;-49
2022/08/23 02:26:18;;;;;;;0.90;0.90;;;;;;;19.47;68.71;100504.03;5074654;28;20037;-51
2022/08/23 02:28:44;;;;;;;1.70;0.70;;;;;;;19.29;68.50;100477.88;5075178;28;20040;-52
2022/08/23 02:31:10;;;;;;;0.40;0.40;;;;;;;19.39;68.09;100490.84;5074702;28;20024;-50
2022/08/23 02:33:36;;;;;;;0.95;0.60;;;;;;;19.33;68.63;100484.50;5074358;28;20036;-55
2022/08/23 02:36:02;;;;;;;0.43;0.40;;;;;;;19.36;68.18;100494.06;5074715;28;20028;-53
2022/08/23 02:38:28;;;;;;;0.60;0.60;;;;;;;19.34;68.36;100491.59;5075478;28;20376;-52
2022/08/23 02:40:54;;;;;;;0.43;0.40;;;;;;;19.31;68.22;100483.09;5057059;28;20024;-50
2022/08/23 02:43:20;;;;;;;0.47;0.47;;;;;;;19.32;68.36;100479.31;5077601;28;20419;-53
2022/08/23 02:45:45;;;;;;;0.40;0.40;;;;;;;19.27;68.08;100480.03;5080829;28;20036;-50
2022/08/23 02:48:11;;;;;;;0.40;0.30;;;;;;;19.30;68.16;100485.00;5074827;28;20031;-53
2022/08/23 02:50:37;;;;;;;0.52;0.50;;;;;;;19.34;67.98;100491.59;5056670;28;20033;-51
2022/08/23 02:53:03;;;;;;;0.20;0.20;;;;;;;19.34;68.38;100491.59;5077310;28;20041;-53
2022/08/23 02:55:30;;;;;;;0.65;0.50;;;;;;;19.14;69.82;100475.78;5077571;28;20145;-54
2022/08/23 02:57:55;;;;;;;0.47;0.35;;;;;;;19.11;69.88;100487.19;5076141;28;20039;-55
2022/08/23 03:00:21;;;;;;;0.40;0.40;;;;;;;19.19;69.05;100493.28;5074544;28;20408;-49
2022/08/23 03:02:47;;;;;;;0.73;0.40;;;;;;;19.27;69.44;100503.75;5056871;28;20029;-52
2022/08/23 03:05:14;;;;;;;0.30;0.30;;;;;;;19.22;69.54;100509.91;5057142;28;20032;-49
2022/08/23 03:07:40;;;;;;;0.50;0.40;;;;;;;19.27;68.84;100510.00;5056204;28;20032;-49
2022/08/23 03:10:08;;;;;;;0.30;0.30;;;;;;;19.23;69.48;100508.84;5056270;28;20028;-51
2022/08/23 03:12:34;;;;;;;0.93;0.40;;;;;;;19.28;68.78;100491.78;5073027;28;20029;-48
2022/08/23 03:15:00;;;;;;;0.90;0.20;;;;;;;19.30;68.68;100500.53;5073771;28;20480;-51
2022/08/23 03:17:26;;;;;;;0.57;0.40;;;;;;;19.33;68.46;100506.28;5073709;28;20533;-51
2022/08/23 03:19:52;;;;;;;0.45;0.20;;;;;;;19.32;68.09;100490.19;5056029;28;20492;-51
2022/08/23 03:22:18;;;;;;;0.20;0.20;;;;;;;19.40;67.92;100503.38;5074231;28;20033;-51
2022/08/23 03:24:44;;;;;;;0.22;0.20;;;;;;;19.42;68.14;100503.13;5055895;28;20449;-49
2022/08/23 03:27:10;;;;;;;0.55;0.35;;;;;;;19.33;68.83;100509.03;5074624;28;20381;-49
2022/08/23 03:29:37;;;;;;;0.90;0.45;;;;;;;19.28;69.47;100498.03;5074120;28;20033;-48
2022/08/23 03:32:04;;;;;;;2.28;0.43;;;;;;;19.19;69.85;100498.72;5055610;28;20074;-49
2022/08/23 03:34:30;;;;;;;0.38;0.32;;;;;;;19.14;69.42;100489.38;5074266;28;20039;-48
2022/08/23 03:36:57;;;;;;;2.83;0.47;;;;;;;19.14;69.71;100478.50;5073854;28;20037;-49
2022/08/23 03:39:23;;;;;;;1.50;0.50;;;;;;;19.21;69.96;100497.41;5073253;28;20032;-51
2022/08/23 03:41:49;;;;;;;0.57;0.43;;;;;;;19.09;70.50;100489.34;5073809;28;20509;-53
2022/08/23 03:44:15;;;;;;;0.50;0.50;;;;;;;19.05;70.15;100482.72;5073656;28;20092;-49
2022/08/23 03:46:41;;;;;;;0.50;0.50;;;;;;;19.19;69.92;100491.38;5055992;28;20024;-51
2022/08/23 03:49:07;;;;;;;0.45;0.40;;;;;;;19.25;69.61;100487.66;5072139;28;20453;-49
2022/08/23 03:51:33;;;;;;;1.30;0.80;;;;;;;19.29;69.31;100482.53;5073054;28;20068;-49
2022/08/23 03:54:00;;;;;;;1.48;0.70;;;;;;;19.06;70.65;100465.31;5073607;28;20028;-49
2022/08/23 03:56:30;;;;;;;0.75;0.65;;;;;;;19.12;70.44;100480.66;5073429;28;20082;-51
2022/08/23 03:58:58;;;;;;;0.40;0.40;;;;;;;19.12;70.29;100483.38;5073101;28;20024;-54
2022/08/23 04:01:24;;;;;;;0.40;0.40;;;;;;;19.14;69.75;100480.41;5055976;28;20461;-51
2022/08/23 04:03:50;;;;;;;1.90;0.68;;;;;;;19.18;69.95;100487.00;5073479;28;20032;-49
2022/08/23 04:06:17;;;;;;;0.70;0.60;;;;;;;19.08;71.30;100495.03;5055520;28;20028;-49
2022/08/23 04:08:44;;;;;;;0.60;0.60;;;;;;;19.01;71.71;100495.19;5076604;28;20060;-50
2022/08/23 04:11:13;;;;;;;1.35;0.55;;;;;;;19.03;71.78;100501.19;5059484;28;20032;-50
2022/08/23 04:13:40;;;;;;;0.40;0.40;;;;;;;19.04;70.60;100489.25;5077057;28;20107;-49
2022/08/23 04:16:06;;;;;;;0.80;0.50;;;;;;;19.15;70.25;100496.50;5076808;28;20032;-49
2022/08/23 04:18:33;;;;;;;0.43;0.43;;;;;;;19.07;70.76;100488.72;5075841;28;20486;-52
2022/08/23 04:21:02;;;;;;;0.50;0.50;;;;;;;19.08;70.37;100479.50;5059150;28;20063;-53
2022/08/23 04:23:28;;;;;;;0.40;0.40;;;;;;;19.20;70.34;100500.38;5076747;28;20020;-52
2022/08/23 04:25:54;;;;;;;0.93;0.35;;;;;;;19.11;70.54;100484.47;5076487;28;20408;-52
2022/08/23 04:28:21;;;;;;;0.45;0.45;;;;;;;19.09;71.04;100492.06;5058904;28;20040;-50
2022/08/23 04:30:48;;;;;;;0.50;0.40;;;;;;;19.13;70.58;100501.38;5059144;28;20063;-52
2022/08/23 04:33:14;;;;;;;1.85;0.55;;;;;;;19.06;71.19;100494.47;5077097;28;20028;-49
2022/08/23 04:35:41;;;;;;;0.40;0.40;;;;;;;19.06;71.19;100500.72;5076602;28;20029;-50
2022/08/23 04:38:07;;;;;;;0.60;0.50;;;;;;;19.05;70.45;100490.88;5076529;28;20024;-49
2022/08/23 04:43:19;;;;;;;0.50;0.50;;;;;;;19.08;71.08;100500.47;5061958;28;20033;-50
2022/08/23 04:45:45;;;;;;;1.05;0.63;;;;;;;18.95;71.59;100505.16;5076417;28;20036;-49
2022/08/23 04:48:12;;;;;;;0.32;0.32;;;;;;;19.07;70.93;100520.59;5076532;28;20024;-49
2022/08/23 04:50:39;;;;;;;0.40;0.40;;;;;;;19.08;70.91;100520.34;5076430;28;20021;-50
2022/08/23 04:53:06;;;;;;;0.50;0.50;;;;;;;19.01;71.40;100519.69;5075366;28;20124;-49
2022/08/23 04:55:32;;;;;;;0.60;0.60;;;;;;;19.09;70.66;100523.88;5076638;28;20066;-49
2022/08/23 04:57:58;;;;;;;0.30;0.30;;;;;;;19.10;70.91;100518.19;5076014;28;20427;-49
2022/08/23 05:00:23;;;;;;;0.63;0.60;;;;;;;18.93;71.61;100506.50;5076552;28;20112;-49
2022/08/23 05:02:49;;;;;;;1.48;0.63;;;;;;;18.96;71.59;100522.31;5075980;28;20042;-49
2022/08/23 05:05:16;;;;;;;2.50;0.68;;;;;;;18.94;71.94;100525.31;5058609;28;20472;-51
2022/08/23 05:07:42;;;;;;;2.53;0.80;;;;;;;18.94;72.14;100524.47;5076402;28;20025;-53
2022/08/23 05:10:11;;;;;;;0.65;0.50;;;;;;;18.97;71.93;100534.88;5076003;28;20422;-51
2022/08/23 05:12:38;;;;;;;1.20;0.68;;;;;;;18.94;71.86;100529.91;5075560;28;20028;-48
2022/08/23 05:15:05;;;;;;;1.30;0.80;;;;;;;18.94;72.14;100541.63;5076004;28;20477;-54
2022/08/23 05:17:31;;;;;;;1.55;0.70;;;;;;;18.93;72.24;100539.16;5058086;28;20169;-51
2022/08/23 05:19:57;;;;;;;0.75;0.65;;;;;;;18.94;72.10;100544.38;5057205;28;20461;-51
2022/08/23 05:22:23;;;;;;;0.85;0.50;;;;;;;19.00;71.42;100539.81;5058310;28;20029;-51
2022/08/23 05:24:48;;;;;;;0.45;0.45;;;;;;;19.08;70.83;100539.41;5075724;28;20365;-53
2022/08/23 05:27:14;;;;;;;0.73;0.73;;;;;;;18.98;72.28;100547.41;5075785;28;20036;-49
2022/08/23 05:29:40;;;;;;;0.65;0.65;;;;;;;18.98;71.99;100546.56;5075674;28;20093;-49
2022/08/23 05:32:06;;;;;;;0.77;0.75;;;;;;;19.00;72.03;100552.59;5075523;28;20039;-50
2022/08/23 05:34:32;;;;;;;0.75;0.75;;;;;;;19.04;71.79;100553.78;5075444;28;20025;-50
2022/08/23 05:36:58;;;;;;;1.45;0.75;;;;;;;18.91;72.61;100544.84;5075341;28;20066;-49
2022/08/23 05:39:23;;;;;;;1.00;1.00;;;;;;;18.96;71.94;100546.81;5075276;28;20078;-51
2022/08/23 05:41:49;;;;;;;0.77;0.77;;;;;;;18.97;71.90;100547.66;5074177;28;20028;-52
2022/08/23 05:44:15;;;;;;;0.90;0.90;;;;;;;18.96;71.74;100544.09;5058029;28;20090;-49
2022/08/23 05:46:41;;;;;;;0.93;0.90;;;;;;;18.96;72.62;100563.13;5058034;28;20032;-50
2022/08/23 05:49:07;;;;;;;0.88;0.88;;;;;;;19.01;72.12;100565.97;5075620;28;20082;-49
2022/08/23 05:51:34;;;;;;;1.05;0.98;;;;;;;19.04;72.24;100570.91;5074868;28;20092;-49
2022/08/23 05:54:04;;;;;;;1.50;1.40;;;;;;;19.05;72.08;100569.00;5076300;28;20039;-52
2022/08/23 05:56:33;;;;;;;1.48;1.23;;;;;;;19.06;72.17;100571.50;5040873;28;20043;-53
2022/08/23 05:59:04;;;;;;;1.38;1.27;;;;;;;19.06;71.97;100562.50;5075319;28;20036;-50
2022/08/23 06:01:30;;;;;;;1.40;1.20;;;;;;;19.13;71.86;100571.34;5057521;28;20430;-50
2022/08/23 06:03:58;;;;;;;2.95;1.65;;;;;;;19.21;71.82;100570.09;5057414;28;20036;-54
2022/08/23 06:06:24;;;;;;;3.17;2.20;;;;;;;19.17;71.99;100560.75;5075887;28;20025;-54
2022/08/23 06:08:50;;;;;;;2.80;1.80;;;;;;;19.23;72.00;100573.38;5056751;28;20047;-54
2022/08/23 06:11:20;;;;;;;1.20;1.10;;;;;;;19.31;71.31;100576.50;5074617;28;20113;-49
2022/08/23 06:13:55;;;;;;;2.00;1.90;;;;;;;19.41;71.09;100569.56;5073796;28;20032;-52
2022/08/23 06:16:26;;;;;;;1.92;1.50;;;;;;;19.44;70.68;100558.97;5074784;28;20032;-49
2022/08/23 06:18:54;;;;;;;3.55;3.25;;;;;;;19.36;71.66;100543.09;5074223;28;20538;-50
2022/08/23 06:21:20;;;;;;;3.03;2.72;;;;;;;19.43;71.32;100554.63;5057055;28;20199;-49
2022/08/23 06:23:48;;;;;;;3.38;3.10;;;;;;;19.54;71.01;100555.59;5057746;28;20036;-52
2022/08/23 06:26:25;;;;;;;3.40;3.10;;;;;;;19.52;71.76;100558.56;5075456;28;20028;-48
2022/08/23 06:28:54;;;;;;;4.25;3.95;;;;;;;19.52;71.84;100563.22;5057642;28;20020;-54
2022/08/23 06:34:09;;;;;;;4.10;3.80;;;;;;;19.67;71.12;100548.97;5060102;28;20342;-50
2022/08/23 06:36:36;;;;;;;4.40;4.00;;;;;;;19.86;70.29;100553.06;5075248;28;20024;-49
2022/08/23 06:39:04;;;;;;;3.08;2.83;;;;;;;20.02;69.97;100551.34;5074977;28;20361;-50
2022/08/23 06:41:30;;;;;;;5.15;4.65;;;;;;;19.97;70.11;100532.19;5057768;28;20032;-53
2022/08/23 06:43:56;;;;;;;4.53;4.13;;;;;;;19.91;70.89;100547.66;5075710;28;20137;-52
2022/08/23 06:46:27;;;;;;;6.65;6.15;;;;;;;19.86;71.04;100561.22;5077327;28;20033;-52
2022/08/23 06:48:54;;;;;;;6.57;5.97;;;;;;;19.71;71.71;100555.56;5076161;28;20124;-48
2022/08/23 06:51:24;;;;;;;4.70;4.30;;;;;;;19.87;71.05;100572.94;5074595;28;20091;-48
2022/08/23 06:53:53;;;;;;;7.00;6.40;;;;;;;19.75;71.80;100562.19;5074858;28;20377;-48
2022/08/23 06:56:22;;;;;;;5.72;5.22;;;;;;;19.83;71.70;100569.91;5056713;28;20519;-52
2022/08/23 06:58:47;;;;;;;4.65;4.25;;;;;;;19.84;71.71;100566.13;5074016;28;20073;-50
2022/08/23 07:01:22;;;;;;;5.28;4.82;;;;;;;19.91;71.42;100571.38;5074832;28;20024;-51
2022/08/23 07:03:54;;;;;;;4.72;4.30;;;;;;;19.86;71.17;100580.31;5074319;28;20097;-50
2022/08/23 07:06:22;;;;;;;5.93;5.43;;;;;;;19.88;71.47;100575.44;5074466;28;20060;-51
2022/08/23 07:08:49;;;;;;;4.20;3.42;;;;;;;19.98;70.18;100572.00;5074552;28;20047;-49
2022/08/23 07:11:15;;;;;;;5.05;4.65;;;;;;;20.34;69.57;100577.91;5040307;28;20090;-49
2022/08/23 07:13:41;;;;;;;5.03;4.53;;;;;;;20.23;69.60;100554.31;5074692;28;20024;-49
2022/08/23 07:16:07;;;;;;;3.30;2.97;;;;;;;20.29;69.74;100573.19;5074479;28;20507;-48
2022/08/23 07:18:33;;;;;;;3.28;2.80;;;;;;;20.43;69.16;100578.22;5073064;28;20021;-51
2022/08/23 07:21:01;;;;;;;2.17;1.98;;;;;;;20.70;68.12;100578.28;5074464;28;20097;-48
2022/08/23 07:23:32;;;;;;;5.57;1.73;;;;;;;20.73;67.58;100576.94;5074222;28;20341;-49
2022/08/23 07:25:59;;;;;;;1.30;1.20;;;;;;;20.84;67.15;100592.34;5074282;28;20024;-50
2022/08/23 07:28:26;;;;;;;3.08;1.92;;;;;;;20.77;67.09;100589.00;5056564;28;20032;-53
2022/08/23 07:30:53;;;;;;;3.10;2.08;;;;;;;20.64;67.16;100574.69;5074397;28;20040;-49
2022/08/23 07:33:20;;;;;;;1.92;1.70;;;;;;;20.79;66.58;100595.84;5073634;28;20034;-48
2022/08/23 07:35:49;;;;;;;7.07;1.85;;;;;;;20.81;66.36;100582.75;5075002;28;20043;-54
2022/08/23 07:38:16;;;;;;;1.67;1.58;;;;;;;20.99;65.84;100591.66;5056463;28;20472;-50
2022/08/23 07:40:42;;;;;;;1.33;1.23;;;;;;;21.19;65.20;100580.91;5074566;28;20047;-49
2022/08/23 07:43:08;;;;;;;1.42;1.30;;;;;;;21.36;64.28;100572.53;5078348;28;20036;-49
2022/08/23 07:45:36;;;;;;;0.90;0.60;;;;;;;21.37;64.39;100585.09;5079214;28;20035;-50
2022/08/23 07:48:03;;;;;;;1.55;1.20;;;;;;;21.21;64.21;100566.97;5079239;28;20029;-50
2022/08/23 07:50:29;;;;;;;1.50;1.38;;;;;;;21.30;64.33;100589.16;5079677;28;20028;-50
2022/08/23 07:52:55;;;;;;;1.50;1.30;;;;;;;21.25;63.87;100584.50;5079266;28;20049;-51
2022/08/23 07:55:21;;;;;;;2.55;1.20;;;;;;;21.14;63.07;100569.94;5078904;28;20048;-51
2022/08/23 07:57:47;;;;;;;1.63;1.30;;;;;;;21.09;63.17;100594.47;5077790;28;20507;-52
2022/08/23 08:00:14;;;;;;;1.45;1.27;;;;;;;20.98;63.18;100593.53;5077578;28;20097;-53
2022/08/23 08:02:40;;;;;;;1.42;1.33;;;;;;;21.01;63.29;100600.41;5077781;28;20097;-51
2022/08/23 08:05:06;;;;;;;1.52;1.38;;;;;;;20.89;63.31;100586.91;5077984;28;20029;-53
2022/08/23 08:07:32;;;;;;;1.17;1.08;;;;;;;20.84;63.71;100590.44;5077657;28;20035;-51
2022/08/23 08:09:58;;;;;;;1.13;1.02;;;;;;;20.89;63.43;100603.28;5078162;28;20477;-51
2022/08/23 08:12:27;;;;;;;3.65;1.27;;;;;;;21.15;62.08;100590.66;5078255;28;20392;-51
2022/08/23 08:14:53;;;;;;;1.60;1.20;;;;;;;21.43;61.34;100603.19;5077810;28;20031;-49
2022/08/23 08:17:19;;;;;;;1.20;1.10;;;;;;;21.73;60.57;100611.88;5060597;28;20043;-49
2022/08/23 08:19:45;;;;;;;1.27;1.00;;;;;;;21.61;60.75;100604.69;5077189;28;20115;-53
2022/08/23 08:22:11;;;;;;;1.17;0.80;;;;;;;21.50;61.09;100607.63;5059194;28;20032;-50
2022/08/23 08:24:38;;;;;;;0.77;0.77;;;;;;;21.23;60.75;100587.47;5076911;28;20029;-54
2022/08/23 08:27:04;;;;;;;1.17;0.82;;;;;;;21.32;60.17;100617.88;5077784;28;20512;-54
2022/08/23 08:29:30;;;;;;;1.55;0.80;;;;;;;21.50;59.53;100610.38;5078441;28;20036;-49
2022/08/23 08:31:56;;;;;;;1.25;0.88;;;;;;;21.67;59.20;100604.72;5077175;28;20032;-47
2022/08/23 08:34:22;;;;;;;2.05;0.90;;;;;;;22.23;57.19;100605.00;5077307;28;20116;-48
2022/08/23 08:36:52;;;;;;;1.15;0.68;;;;;;;22.11;57.16;100605.22;5059296;28;20120;-51
2022/08/23 08:39:23;;;;;;;4.35;0.70;;;;;;;22.33;57.06;100612.47;5079230;28;20024;-50
2022/08/23 08:42:17;;;;;;;2.92;0.73;;;;;;;22.50;56.83;100615.78;5078405;28;20388;-49
2022/08/23 08:45:07;;;;;;;1.65;0.90;;;;;;;22.46;57.26;100611.94;5076833;28;20162;-50
2022/08/23 08:47:44;;;;;;;1.02;0.90;;;;;;;22.42;55.99;100621.81;5061913;28;20082;-53
2022/08/23 08:50:23;;;;;;;0.80;0.80;;;;;;;22.21;56.77;100618.97;5042438;28;20051;-53
2022/08/23 08:52:59;;;;;;;2.55;0.73;;;;;;;22.05;57.48;100619.97;5076347;28;20052;-53
2022/08/23 08:55:30;;;;;;;2.00;1.05;;;;;;;21.99;56.96;100615.56;5076928;28;20035;-53
2022/08/23 08:57:57;;;;;;;0.77;0.68;;;;;;;22.21;56.83;100612.66;5076548;28;20037;-52
2022/08/23 09:00:29;;;;;;;1.13;0.85;;;;;;;22.53;55.76;100626.22;5076775;28;20035;-54
2022/08/23 09:02:58;;;;;;;0.90;0.90;;;;;;;22.66;54.57;100622.13;5076814;28;20088;-53
2022/08/23 09:05:30;;;;;;;0.90;0.82;;;;;;;22.79;53.92;100623.53;5076690;28;20032;-53
2022/08/23 09:08:36;;;;;;;0.80;0.80;;;;;;;22.97;53.53;100622.16;5058719;28;20025;-51
2022/08/23 09:11:21;;;;;;;0.70;0.70;;;;;;;23.02;53.58;100616.69;5061451;28;20397;-53
2022/08/23 09:14:14;;;;;;;0.68;0.68;;;;;;;23.47;52.00;100609.56;5076349;28;20025;-52
2022/08/23 09:16:50;;;;;;;0.60;0.60;;;;;;;23.92;51.28;100601.53;5061649;28;20048;-51
2022/08/23 09:19:18;;;;;;;2.10;0.70;;;;;;;23.96;51.43;100594.41;5076511;28;20066;-54
2022/08/23 09:21:48;;;;;;;0.95;0.90;;;;;;;23.87;51.30;100594.16;5059670;28;20024;-54
2022/08/23 09:24:14;;;;;;;1.00;0.70;;;;;;;23.85;51.79;100590.88;5077617;28;20028;-52
2022/08/23 09:26:41;;;;;;;1.10;0.80;;;;;;;24.80;50.52;100594.53;5058496;28;20164;-53
2022/08/23 09:29:26;;;;;;;0.82;0.80;;;;;;;26.55;45.28;100584.44;5075889;28;20066;-49
2022/08/23 09:31:57;;;;;;;2.13;0.70;;;;;;;28.26;43.26;100589.41;5058041;28;20036;-51
2022/08/23 09:34:41;;;;;;;0.60;0.60;;;;;;;29.28;41.18;100586.19;5075651;28;20099;-53
2022/08/23 09:37:21;;;;;;;1.50;0.50;;;;;;;29.59;40.39;100586.19;5074579;28;20036;-53
2022/08/23 09:39:50;;;;;;;0.50;0.50;;;;;;;30.35;40.07;100582.38;5075529;28;20103;-54
2022/08/23 09:42:36;;;;;;;0.73;0.47;;;;;;;31.22;35.52;100589.81;5057606;28;20124;-49
2022/08/23 09:45:27;;;;;;;1.15;0.60;;;;;;;32.63;31.92;100579.66;5057242;28;20055;-51
2022/08/23 09:47:53;;;;;;;0.90;0.60;;;;;;;32.03;36.56;100588.06;5058111;28;20132;-54
2022/08/23 09:50:26;;;;;;;3.00;0.60;;;;;;;32.32;34.81;100590.00;5075564;28;20059;-50
2022/08/23 09:52:57;;;;;;;3.97;0.68;;;;;;;33.48;32.48;100589.44;5058783;28;20625;-54
2022/08/23 09:55:34;;;;;;;0.98;0.68;;;;;;;33.73;31.90;100581.97;5059823;28;20036;-53
2022/08/23 09:58:02;;;;;;;1.33;0.50;;;;;;;33.96;31.36;100567.53;5077730;28;20051;-54
2022/08/23 10:00:32;;;;;;;0.90;0.60;;;;;;;34.71;30.88;100569.81;5074875;28;20028;-55
2022/08/23 10:03:24;;;;;;;2.03;0.60;;;;;;;34.66;28.93;100570.06;5075985;28;20024;-52
2022/08/23 10:05:53;;;;;;;1.92;0.60;;;;;;;35.08;29.80;100558.47;5057750;28;20027;-54
2022/08/23 10:08:27;;;;;;;0.57;0.50;;;;;;;35.71;28.31;100566.09;5075986;28;20036;-52
2022/08/23 10:10:58;;;;;;;0.90;0.60;;;;;;;34.63;29.41;100568.78;5076237;28;20103;-53
2022/08/23 10:13:24;;;;;;;1.08;0.60;;;;;;;34.25;30.92;100566.47;5074900;28;20029;-55
2022/08/23 10:16:03;;;;;;;0.85;0.50;;;;;;;35.04;28.54;100554.78;5075629;28;20024;-53
2022/08/23 10:19:09;;;;;;;0.57;0.55;;;;;;;34.93;28.16;100573.22;5075206;28;20108;-53
2022/08/23 10:22:02;;;;;;;1.45;0.50;;;;;;;34.24;28.88;100582.38;5043308;28;20039;-51
2022/08/23 10:24:45;;;;;;;;;;;;;;;33.25;30.98;100586.28;5074867;28;20086;-52
2022/08/23 10:30:15;;;;;;;1.63;0.50;;;;;;;35.53;27.31;100568.44;5060125;28;20107;-54
2022/08/23 10:33:11;;;;;;;0.50;0.50;;;;;;;36.05;26.43;100574.88;5075183;28;20025;-50
2022/08/23 10:35:45;;;;;;;0.57;0.57;;;;;;;36.83;24.84;100557.38;5074389;28;20708;-52
2022/08/23 10:38:47;;;;;;;2.38;0.55;;;;;;;36.69;26.24;100569.09;5075690;28;20572;-51
2022/08/23 10:41:30;;;;;;;0.70;0.60;;;;;;;34.66;28.18;100570.88;5060385;28;20469;-47
2022/08/23 10:44:24;;;;;;;0.95;0.43;;;;;;;33.92;28.21;100578.56;5075232;28;20045;-48
2022/08/23 10:47:21;;;;;;;1.38;0.45;;;;;;;34.32;28.87;100575.03;5074127;28;20196;-51
2022/08/23 10:49:51;;;;;;;2.90;0.47;;;;;;;35.99;27.31;100570.75;5061794;28;20054;-50
2022/08/23 10:52:22;;;;;;;0.60;0.60;;;;;;;34.27;28.39;100566.94;5074943;28;20397;-49
2022/08/23 10:54:59;;;;;;;1.15;0.40;;;;;;;32.79;30.59;100567.53;5074611;28;20409;-49
2022/08/23 10:57:33;;;;;;;0.60;0.40;;;;;;;32.33;31.01;100557.47;5074374;28;20427;-50
2022/08/23 10:59:59;;;;;;;1.10;0.40;;;;;;;31.46;33.04;100572.59;5075835;28;20021;-49
2022/08/23 11:02:36;;;;;;;0.32;0.32;;;;;;;30.74;33.90;100572.25;5075753;28;20024;-52
2022/08/23 11:05:20;;;;;;;0.32;0.32;;;;;;;31.29;33.59;100578.22;5075679;28;20157;-51
2022/08/23 11:08:03;;;;;;;;;;;;;;;30.80;34.27;100584.00;5075063;28;20508;-51
2022/08/23 11:10:41;;;;;;;0.70;0.50;;;;;;;30.34;34.75;100588.22;5040322;28;19966;-49
2022/08/23 11:13:24;;;;;;;3.60;0.57;;;;;;;29.71;35.92;100582.78;5074482;28;20029;-48
2022/08/23 11:16:04;;;;;;;0.40;0.40;;;;;;;29.56;37.01;100599.84;5074489;28;20107;-49
2022/08/23 11:18:46;;;;;;;0.47;0.30;;;;;;;29.46;37.00;100587.91;5076679;28;20029;-52
2022/08/23 11:21:43;;;;;;;0.55;0.40;;;;;;;29.73;36.57;100597.97;5056886;28;20033;-50
2022/08/23 11:24:28;;;;;;;1.17;0.40;;;;;;;29.71;36.55;100588.34;5056949;28;20039;-49
2022/08/23 11:27:04;;;;;;;0.20;0.20;;;;;;;29.94;36.32;100596.56;5075059;28;20472;-54
2022/08/23 11:29:31;;;;;;;1.10;0.50;;;;;;;31.09;34.60;100590.81;5057140;28;20101;-52
2022/08/23 11:32:13;;;;;;;0.95;0.50;;;;;;;33.55;30.56;100579.34;5073880;28;20029;-54
2022/08/23 11:34:48;;;;;;;2.92;0.55;;;;;;;34.58;29.73;100587.75;5075289;28;20198;-52
2022/08/23 11:37:27;;;;;;;0.77;0.40;;;;;;;33.17;30.86;100576.84;5057079;28;20392;-53
2022/08/23 11:40:06;;;;;;;4.10;0.30;;;;;;;32.03;32.04;100576.94;5074344;28;20032;-52
2022/08/23 11:42:51;;;;;;;2.15;0.20;;;;;;;32.28;31.65;100580.72;5073458;28;20033;-50
2022/08/23 11:45:41;;;;;;;1.77;0.30;;;;;;;31.40;34.06;100588.63;5074160;28;20025;-52
2022/08/23 11:48:39;;;;;;;1.65;0.40;;;;;;;30.83;34.50;100580.56;5073106;28;20511;-51
2022/08/23 11:51:23;;;;;;;1.33;0.30;;;;;;;30.66;35.17;100585.00;5072860;28;20386;-49
2022/08/23 11:54:17;;;;;;;0.30;0.30;;;;;;;30.43;34.64;100575.19;5055784;28;20500;-50
2022/08/23 11:56:54;;;;;;;;;;;;;;;30.65;35.71;100588.09;5059522;28;20111;-50
2022/08/23 11:59:48;;;;;;;0.35;0.30;;;;;;;30.23;35.76;100582.16;5073790;28;20253;-53